createdAt,value
2023-01-29T00:05:35.272Z,19.23
2023-01-29T00:15:37.501Z,17.37
2023-01-29T00:25:39.619Z,19.10
2023-01-29T00:35:41.978Z,19.50
2023-01-29T00:45:44.344Z,19.53
2023-01-29T00:55:46.559Z,19.70
2023-01-29T01:05:49.635Z,19.87
2023-01-29T01:15:51.946Z,20.37
2023-01-29T01:25:54.172Z,21.10
2023-01-29T01:36:02.009Z,19.23
2023-01-29T01:46:04.574Z,20.40
2023-01-29T01:56:13.866Z,20.83
2023-01-29T02:06:35.145Z,20.93
2023-01-29T02:16:37.928Z,22.27
2023-01-29T02:26:55.945Z,21.30
2023-01-29T02:37:06.856Z,22.03
2023-01-29T02:47:42.974Z,20.47
2023-01-29T02:57:46.911Z,21.63
2023-01-29T03:07:54.268Z,19.07
2023-01-29T03:18:15.956Z,23.63
2023-01-29T03:28:36.724Z,22.47
2023-01-29T03:38:40.168Z,21.93
2023-01-29T03:48:55.661Z,22.60
2023-01-29T03:59:14.951Z,23.73
2023-01-29T04:10:02.004Z,25.73
2023-01-29T04:20:09.785Z,24.80
2023-01-29T04:30:30.998Z,24.90
2023-01-29T04:40:55.355Z,24.77
2023-01-29T04:50:57.612Z,26.27
2023-01-29T05:01:01.090Z,26.30
2023-01-29T05:11:03.266Z,25.50
2023-01-29T05:21:07.813Z,24.73
2023-01-29T05:31:10.051Z,25.07
2023-01-29T05:41:12.349Z,24.07
2023-01-29T05:51:14.642Z,24.40
2023-01-29T06:01:23.340Z,23.87
2023-01-29T06:11:25.927Z,22.53
2023-01-29T06:21:28.127Z,22.90
2023-01-29T06:31:39.938Z,22.67
2023-01-29T06:41:42.443Z,21.37
2023-01-29T06:51:44.700Z,20.33
2023-01-29T07:01:47.010Z,20.70
2023-01-29T07:11:49.519Z,19.13
2023-01-29T07:21:51.785Z,20.90
2023-01-29T07:31:54.115Z,18.80
2023-01-29T07:41:56.495Z,20.17
2023-01-29T07:51:58.724Z,19.77
2023-01-29T08:02:01.036Z,18.73
2023-01-29T08:12:03.730Z,20.00
2023-01-29T08:22:06.373Z,19.13
2023-01-29T08:32:11.633Z,19.63
2023-01-29T08:42:14.843Z,19.43
2023-01-29T08:52:16.964Z,19.93
2023-01-29T09:02:19.216Z,19.23
2023-01-29T09:12:21.326Z,19.83
2023-01-29T09:22:23.408Z,20.50
2023-01-29T09:32:52.077Z,20.30
2023-01-29T09:42:56.788Z,18.90
2023-01-29T09:53:02.991Z,21.13
2023-01-29T10:03:11.121Z,19.47
2023-01-29T10:13:52.237Z,22.27
2023-01-29T10:24:07.211Z,20.33
2023-01-29T10:34:28.892Z,20.83
2023-01-29T10:44:57.121Z,20.67
2023-01-29T10:55:17.965Z,19.77
2023-01-29T11:05:40.474Z,21.60
2023-01-29T11:15:43.905Z,24.13
2023-01-29T11:25:52.760Z,28.27
2023-01-29T11:35:57.588Z,22.60
2023-01-29T11:46:03.058Z,19.90
2023-01-29T11:56:16.796Z,20.60
2023-01-29T12:06:24.435Z,19.17
2023-01-29T12:16:33.127Z,19.90
2023-01-29T12:26:36.385Z,19.57
2023-01-29T12:37:19.352Z,17.80
2023-01-29T12:47:30.341Z,18.03
2023-01-29T12:57:51.497Z,18.20
2023-01-29T13:08:07.715Z,18.93
2023-01-29T13:18:31.555Z,20.67
2023-01-29T13:28:33.771Z,17.43
2023-01-29T13:38:36.527Z,16.10
2023-01-29T13:48:43.553Z,14.60
2023-01-29T13:58:45.637Z,28.30
2023-01-29T14:08:47.917Z,17.57
2023-01-29T14:19:01.615Z,15.57
2023-01-29T14:29:16.467Z,14.07
2023-01-29T14:39:44.293Z,16.40
2023-01-29T14:49:50.679Z,14.57
2023-01-29T14:59:58.700Z,14.07
2023-01-29T15:10:22.263Z,12.17
2023-01-29T15:20:31.088Z,13.70
2023-01-29T15:30:35.568Z,10.93
2023-01-29T15:40:37.772Z,10.97
2023-01-29T15:50:41.532Z,11.33
2023-01-29T16:00:54.927Z,10.50
2023-01-29T16:10:58.752Z,10.87
2023-01-29T16:21:05.666Z,12.47
2023-01-29T16:31:08.190Z,15.13
2023-01-29T16:41:36.030Z,12.23
2023-01-29T16:51:39.301Z,20.47
2023-01-29T17:01:41.869Z,12.30
2023-01-29T17:11:44.169Z,12.60
2023-01-29T17:21:47.145Z,13.67
2023-01-29T17:31:49.430Z,14.77
2023-01-29T17:41:53.913Z,13.23
2023-01-29T17:51:57.193Z,13.47
2023-01-29T18:01:59.907Z,13.10
2023-01-29T18:12:02.122Z,14.57
2023-01-29T18:22:04.318Z,13.27
2023-01-29T18:32:07.045Z,13.40
2023-01-29T18:42:09.399Z,14.80
2023-01-29T18:52:11.727Z,15.40
2023-01-29T19:02:15.833Z,14.33
2023-01-29T19:12:18.205Z,13.50
2023-01-29T19:22:20.535Z,12.70
2023-01-29T19:32:22.889Z,13.13
2023-01-29T19:42:28.213Z,13.67
2023-01-29T19:52:50.388Z,13.67
2023-01-29T20:02:53.400Z,11.93
2023-01-29T20:12:55.525Z,12.50
2023-01-29T20:22:57.921Z,11.50
2023-01-29T20:33:00.412Z,12.43
2023-01-29T20:43:02.761Z,11.20
2023-01-29T20:53:05.088Z,13.07
2023-01-29T21:03:08.927Z,13.67
2023-01-29T21:13:12.311Z,12.33
2023-01-29T21:23:14.644Z,12.50
2023-01-29T21:33:17.858Z,14.30
2023-01-29T21:43:21.216Z,14.10
2023-01-29T21:53:23.584Z,12.80
2023-01-29T22:03:25.919Z,14.13
2023-01-29T22:13:28.036Z,14.77
2023-01-29T22:23:31.940Z,14.53
2023-01-29T22:33:34.386Z,14.13
2023-01-29T22:43:36.731Z,13.13
2023-01-29T22:53:40.897Z,15.10
2023-01-29T23:03:44.432Z,15.33
2023-01-29T23:13:52.082Z,14.83
2023-01-29T23:23:58.412Z,14.90
2023-01-29T23:34:02.050Z,15.97
2023-01-29T23:44:05.428Z,12.97
2023-01-29T23:54:07.877Z,15.83
